createdAt,value
2022-12-23T00:00:56.711Z,21.70
2022-12-23T00:03:27.695Z,28.80
2022-12-23T00:05:57.679Z,28.33
2022-12-23T00:08:28.554Z,26.55
2022-12-23T00:10:59.608Z,23.75
2022-12-23T00:13:48.964Z,25.42
2022-12-23T00:16:18.763Z,24.92
2022-12-23T00:18:48.456Z,23.70
2022-12-23T00:21:19.777Z,23.08
2022-12-23T00:23:51.240Z,25.48
2022-12-23T00:26:26.260Z,26.42
2022-12-23T00:28:58.080Z,27.35
2022-12-23T00:31:28.311Z,28.08
2022-12-23T00:33:57.939Z,26.83
2022-12-23T00:36:32.212Z,29.60
2022-12-23T00:39:21.784Z,29.42
2022-12-23T00:42:11.548Z,29.98
2022-12-23T00:44:41.174Z,30.55
2022-12-23T00:47:30.392Z,31.15
2022-12-23T00:50:00.002Z,29.73
2022-12-23T00:52:29.527Z,30.10
2022-12-23T00:54:59.157Z,30.38
2022-12-23T00:57:28.755Z,30.17
2022-12-23T00:59:58.453Z,30.23
2022-12-23T01:02:47.741Z,33.10
2022-12-23T01:05:36.971Z,32.17
2022-12-23T01:08:12.720Z,33.30
2022-12-23T01:10:43.258Z,33.55
2022-12-23T01:13:12.900Z,36.50
2022-12-23T01:15:42.603Z,38.20
2022-12-23T01:18:12.370Z,39.90
2022-12-23T01:20:42.846Z,39.38
2022-12-23T01:23:12.522Z,41.35
2022-12-23T01:25:42.126Z,44.63
2022-12-23T01:28:11.740Z,46.08
2022-12-23T01:30:41.333Z,47.45
2022-12-23T01:33:10.882Z,47.45
2022-12-23T01:35:40.403Z,43.90
2022-12-23T01:38:10.281Z,41.75
2022-12-23T01:40:42.668Z,37.97
2022-12-23T01:43:20.070Z,34.38
2022-12-23T01:45:50.274Z,35.97
2022-12-23T01:48:27.699Z,34.55
2022-12-23T01:51:04.393Z,34.75
2022-12-23T01:53:39.454Z,34.80
2022-12-23T01:56:34.723Z,35.45
2022-12-23T01:59:10.286Z,34.97
2022-12-23T02:01:59.678Z,36.65
2022-12-23T02:04:29.419Z,34.78
2022-12-23T02:07:18.509Z,35.38
2022-12-23T02:09:48.158Z,32.17
2022-12-23T02:12:42.155Z,33.85
2022-12-23T02:15:50.851Z,35.45
2022-12-23T02:18:59.529Z,36.28
2022-12-23T02:22:01.616Z,32.42
2022-12-23T02:25:06.218Z,35.15
2022-12-23T02:27:51.017Z,33.45
2022-12-23T02:30:47.036Z,33.47
2022-12-23T02:33:40.937Z,31.08
2022-12-23T02:36:49.663Z,32.08
2022-12-23T02:39:50.604Z,31.27
2022-12-23T02:42:25.982Z,29.88
2022-12-23T02:45:19.228Z,29.77
2022-12-23T02:48:01.114Z,28.70
2022-12-23T02:50:36.745Z,28.50
2022-12-23T02:53:33.083Z,26.38
2022-12-23T02:56:04.163Z,26.63
2022-12-23T02:58:44.907Z,27.52
2022-12-23T03:01:17.359Z,25.52
2022-12-23T03:03:49.562Z,26.17
2022-12-23T03:06:27.525Z,26.85
2022-12-23T03:09:00.186Z,25.15
2022-12-23T03:11:48.122Z,27.38
2022-12-23T03:14:43.684Z,26.90
2022-12-23T03:17:33.022Z,25.75
2022-12-23T03:20:29.245Z,26.13
2022-12-23T03:23:23.514Z,25.85
2022-12-23T03:26:04.120Z,24.95
2022-12-23T03:28:46.421Z,23.40
2022-12-23T03:31:24.731Z,21.10
2022-12-23T03:34:03.783Z,23.63
2022-12-23T03:36:43.657Z,21.58
2022-12-23T03:39:18.160Z,24.75
2022-12-23T03:41:54.884Z,23.75
2022-12-23T03:44:32.449Z,23.90
2022-12-23T03:47:32.143Z,24.42
2022-12-23T03:50:08.248Z,24.80
2022-12-23T03:52:58.290Z,24.90
2022-12-23T03:55:34.351Z,23.63
2022-12-23T03:58:13.815Z,22.02
2022-12-23T04:00:52.910Z,21.27
2022-12-23T04:03:52.417Z,20.60
2022-12-23T04:06:23.338Z,23.67
2022-12-23T04:08:54.496Z,25.40
2022-12-23T04:11:24.161Z,22.70
2022-12-23T04:13:55.325Z,22.90
2022-12-23T04:16:25.366Z,23.58
2022-12-23T04:18:54.954Z,21.67
2022-12-23T04:21:24.562Z,22.77
2022-12-23T04:23:54.329Z,21.35
2022-12-23T04:26:23.814Z,21.45
2022-12-23T04:28:53.287Z,21.98
2022-12-23T04:31:23.036Z,22.13
2022-12-23T04:33:52.719Z,20.48
2022-12-23T04:36:22.276Z,19.70
2022-12-23T04:38:51.924Z,19.73
2022-12-23T04:41:21.518Z,21.17
2022-12-23T04:43:53.234Z,20.25
2022-12-23T04:46:23.326Z,19.42
2022-12-23T04:48:53.175Z,19.20
2022-12-23T04:51:22.745Z,17.77
2022-12-23T04:53:52.375Z,19.58
2022-12-23T04:56:21.965Z,18.92
2022-12-23T04:58:51.572Z,19.17
2022-12-23T05:01:21.280Z,19.08
2022-12-23T05:03:50.936Z,18.60
2022-12-23T05:06:20.523Z,17.55
2022-12-23T05:08:50.119Z,18.38
2022-12-23T05:11:19.653Z,18.02
2022-12-23T05:13:49.310Z,17.15
2022-12-23T05:16:18.994Z,17.65
2022-12-23T05:18:48.896Z,17.42
2022-12-23T05:21:18.714Z,17.63
2022-12-23T05:23:48.475Z,18.15
2022-12-23T05:26:18.115Z,18.88
2022-12-23T05:28:47.802Z,17.92
2022-12-23T05:31:19.082Z,17.90
2022-12-23T05:33:48.763Z,17.50
2022-12-23T05:36:18.601Z,17.00
2022-12-23T05:38:48.208Z,17.42
2022-12-23T05:41:18.982Z,16.58
2022-12-23T05:43:48.651Z,15.80
2022-12-23T05:46:24.270Z,17.05
2022-12-23T05:48:56.283Z,17.80
2022-12-23T05:51:25.871Z,17.08
2022-12-23T05:53:55.422Z,17.52
2022-12-23T05:56:25.058Z,16.10
2022-12-23T05:58:54.586Z,17.80
2022-12-23T06:01:24.054Z,15.88
2022-12-23T06:03:53.806Z,17.88
2022-12-23T06:06:23.456Z,16.80
2022-12-23T06:08:59.151Z,17.13
2022-12-23T06:11:29.587Z,16.05
2022-12-23T06:13:59.280Z,17.50
2022-12-23T06:16:28.899Z,16.38
2022-12-23T06:18:58.804Z,16.52
2022-12-23T06:21:28.416Z,15.02
2022-12-23T06:23:57.932Z,14.13
2022-12-23T06:26:28.114Z,15.90
2022-12-23T06:28:57.657Z,15.43
2022-12-23T06:31:27.312Z,14.68
2022-12-23T06:33:57.128Z,14.43
2022-12-23T06:36:26.575Z,15.32
2022-12-23T06:38:56.094Z,15.55
2022-12-23T06:41:26.272Z,14.32
2022-12-23T06:43:55.895Z,13.80
2022-12-23T06:46:25.843Z,14.35
2022-12-23T06:48:55.672Z,14.80
2022-12-23T06:51:25.637Z,15.30
2022-12-23T06:53:55.250Z,14.02
2022-12-23T06:56:24.944Z,14.80
2022-12-23T06:58:54.559Z,14.40
2022-12-23T07:01:24.445Z,14.85
2022-12-23T07:03:55.028Z,13.13
2022-12-23T07:06:24.587Z,13.80
2022-12-23T07:08:54.339Z,14.95
2022-12-23T07:11:23.974Z,15.00
2022-12-23T07:13:53.549Z,15.32
2022-12-23T07:16:23.149Z,15.98
2022-12-23T07:18:52.829Z,15.15
2022-12-23T07:21:28.883Z,14.65
2022-12-23T07:23:59.603Z,14.45
2022-12-23T07:26:29.241Z,14.63
2022-12-23T07:28:58.945Z,14.68
2022-12-23T07:31:28.746Z,14.30
2022-12-23T07:33:58.441Z,13.70
2022-12-23T07:36:28.629Z,15.07
2022-12-23T07:38:58.377Z,14.27
2022-12-23T07:41:27.977Z,15.38
2022-12-23T07:43:57.517Z,13.98
2022-12-23T07:46:27.891Z,14.13
2022-12-23T07:48:57.422Z,14.60
2022-12-23T07:51:27.493Z,14.50
2022-12-23T07:53:57.189Z,14.75
2022-12-23T07:56:26.942Z,13.80
2022-12-23T07:58:56.954Z,14.30
2022-12-23T08:01:26.739Z,14.80
2022-12-23T08:03:56.527Z,14.45
2022-12-23T08:06:26.232Z,14.23
2022-12-23T08:08:55.946Z,14.25
2022-12-23T08:11:25.939Z,14.82
2022-12-23T08:13:55.627Z,14.43
2022-12-23T08:16:25.384Z,13.90
2022-12-23T08:18:54.959Z,14.60
2022-12-23T08:21:24.529Z,14.70
2022-12-23T08:23:54.381Z,13.65
2022-12-23T08:26:26.249Z,14.15
2022-12-23T08:28:55.932Z,13.75
2022-12-23T08:31:29.130Z,13.70
2022-12-23T08:34:00.519Z,13.80
2022-12-23T08:36:36.720Z,14.23
2022-12-23T08:39:09.664Z,14.15
2022-12-23T08:41:42.705Z,13.93
2022-12-23T08:44:12.560Z,13.57
2022-12-23T08:46:42.883Z,13.77
2022-12-23T08:49:13.232Z,14.15
2022-12-23T08:51:44.152Z,12.65
2022-12-23T08:54:14.022Z,14.50
2022-12-23T08:56:44.765Z,14.60
2022-12-23T08:59:19.916Z,14.13
2022-12-23T09:01:50.127Z,12.85
2022-12-23T09:04:20.281Z,13.73
2022-12-23T09:06:49.921Z,13.90
2022-12-23T09:09:19.536Z,13.77
2022-12-23T09:11:49.123Z,13.95
2022-12-23T09:14:18.762Z,14.27
2022-12-23T09:16:48.563Z,14.50
2022-12-23T09:19:18.145Z,13.32
2022-12-23T09:21:47.727Z,13.48
2022-12-23T09:24:17.348Z,12.95
2022-12-23T09:26:46.918Z,13.80
2022-12-23T09:29:16.384Z,14.30
2022-12-23T09:31:46.075Z,14.05
2022-12-23T09:34:15.893Z,13.38
2022-12-23T09:36:49.141Z,14.20
2022-12-23T09:39:21.605Z,13.35
2022-12-23T09:42:30.341Z,13.27
2022-12-23T09:45:40.690Z,14.23
2022-12-23T09:48:23.213Z,13.52
2022-12-23T09:50:53.238Z,14.02
2022-12-23T09:53:28.813Z,14.43
2022-12-23T09:56:18.308Z,14.52
2022-12-23T09:59:11.092Z,14.00
2022-12-23T10:01:52.384Z,14.70
2022-12-23T10:04:47.398Z,15.07
2022-12-23T10:07:45.075Z,14.98
2022-12-23T10:12:52.138Z,14.98
2022-12-23T10:15:39.834Z,14.77
2022-12-23T10:18:22.656Z,15.20
2022-12-23T10:21:06.314Z,15.38
2022-12-23T10:23:40.408Z,14.88
2022-12-23T10:26:34.299Z,15.23
2022-12-23T10:29:20.003Z,15.07
2022-12-23T10:32:21.358Z,15.90
2022-12-23T10:35:16.516Z,15.85
2022-12-23T10:37:59.456Z,15.68
2022-12-23T10:40:39.573Z,16.33
2022-12-23T10:43:37.343Z,16.95
2022-12-23T10:49:28.308Z,16.52
2022-12-23T10:52:14.437Z,16.85
2022-12-23T10:54:47.207Z,16.33
2022-12-23T10:57:19.229Z,17.50
2022-12-23T10:59:49.038Z,16.83
2022-12-23T11:02:51.165Z,17.27
2022-12-23T11:05:29.335Z,18.08
2022-12-23T11:07:59.429Z,17.60
2022-12-23T11:10:34.587Z,17.63
2022-12-23T11:13:04.261Z,18.40
2022-12-23T11:15:40.226Z,19.55
2022-12-23T11:18:22.905Z,19.70
2022-12-23T11:21:16.457Z,21.05
2022-12-23T11:23:46.360Z,20.70
2022-12-23T11:26:21.282Z,20.77
2022-12-23T11:28:58.955Z,19.48
2022-12-23T11:31:34.147Z,19.73
2022-12-23T11:34:09.275Z,18.42
2022-12-23T11:36:38.935Z,16.92
2022-12-23T11:39:30.385Z,17.73
2022-12-23T11:42:18.722Z,19.70
2022-12-23T11:44:54.716Z,17.25
2022-12-23T11:47:43.284Z,18.50
2022-12-23T11:50:40.133Z,18.60
2022-12-23T11:53:17.623Z,19.92
2022-12-23T11:56:09.289Z,18.75
2022-12-23T11:59:07.294Z,18.25
2022-12-23T12:01:39.003Z,18.45
2022-12-23T12:04:20.879Z,19.42
2022-12-23T12:06:56.270Z,18.80
2022-12-23T12:09:27.021Z,20.33
2022-12-23T12:12:08.334Z,18.08
2022-12-23T12:14:47.193Z,19.08
2022-12-23T12:17:46.345Z,20.35
2022-12-23T12:20:44.203Z,19.80
2022-12-23T12:26:06.549Z,21.38
2022-12-23T12:28:47.114Z,22.42
2022-12-23T12:31:36.025Z,21.08
2022-12-23T12:34:36.909Z,20.98
2022-12-23T12:37:26.647Z,21.85
2022-12-23T12:40:05.172Z,22.88
2022-12-23T12:42:44.721Z,21.25
2022-12-23T12:45:28.947Z,21.70
2022-12-23T12:48:27.109Z,22.83
2022-12-23T12:51:30.777Z,24.98
2022-12-23T12:54:08.338Z,23.95
2022-12-23T12:56:53.595Z,24.63
2022-12-23T12:59:28.083Z,23.65
2022-12-23T13:02:36.898Z,24.95
2022-12-23T13:05:34.425Z,23.25
2022-12-23T13:08:37.440Z,23.98
2022-12-23T13:11:46.747Z,22.67
2022-12-23T13:14:45.484Z,22.55
2022-12-23T13:17:35.170Z,21.73
2022-12-23T13:20:33.516Z,22.25
2022-12-23T13:23:42.209Z,23.42
2022-12-23T13:26:21.991Z,25.45
2022-12-23T13:29:04.703Z,25.95
2022-12-23T13:31:48.500Z,26.95
2022-12-23T13:34:57.229Z,28.30
2022-12-23T13:37:54.206Z,28.83
2022-12-23T13:40:47.823Z,27.60
2022-12-23T13:43:27.149Z,27.38
2022-12-23T13:45:58.130Z,28.40
2022-12-23T13:48:56.475Z,27.13
2022-12-23T13:51:46.137Z,27.55
2022-12-23T13:54:48.676Z,28.65
2022-12-23T13:57:47.367Z,27.77
2022-12-23T14:00:31.991Z,26.88
2022-12-23T14:03:22.074Z,26.60
2022-12-23T14:05:53.349Z,25.63
2022-12-23T14:08:42.800Z,27.15
2022-12-23T14:11:33.723Z,26.88
2022-12-23T14:14:05.970Z,27.98
2022-12-23T14:17:07.036Z,27.08
2022-12-23T14:20:08.133Z,26.00
2022-12-23T14:22:55.534Z,27.80
2022-12-23T14:25:55.586Z,26.27
2022-12-23T14:29:04.422Z,24.38
2022-12-23T14:31:49.381Z,28.48
2022-12-23T14:34:33.974Z,28.42
2022-12-23T14:37:38.445Z,26.90
2022-12-23T14:40:47.185Z,27.58
2022-12-23T14:43:35.286Z,27.52
2022-12-23T14:49:37.561Z,28.08
2022-12-23T14:52:44.648Z,27.90
2022-12-23T14:55:41.236Z,29.15
2022-12-23T14:58:36.067Z,28.75
2022-12-23T15:01:29.469Z,30.02
2022-12-23T15:04:01.788Z,27.77
2022-12-23T15:06:40.103Z,28.45
2022-12-23T15:09:11.590Z,28.48
2022-12-23T15:11:42.935Z,28.48
2022-12-23T15:14:30.491Z,26.85
2022-12-23T15:17:00.209Z,27.40
2022-12-23T15:19:30.671Z,31.10
2022-12-23T15:22:21.241Z,32.55
2022-12-23T15:24:52.123Z,31.38
2022-12-23T15:27:27.820Z,33.28
2022-12-23T15:29:58.596Z,34.25
2022-12-23T15:32:30.297Z,32.17
2022-12-23T15:35:06.760Z,34.20
2022-12-23T15:37:36.688Z,33.45
2022-12-23T15:40:13.343Z,34.40
2022-12-23T15:42:50.661Z,34.58
2022-12-23T15:45:41.112Z,34.25
2022-12-23T15:48:32.923Z,33.28
2022-12-23T15:51:42.936Z,35.70
2022-12-23T15:54:26.668Z,33.50
2022-12-23T15:56:58.823Z,36.05
2022-12-23T15:59:36.195Z,34.55
2022-12-23T16:05:43.793Z,32.55
2022-12-23T16:08:29.878Z,32.00
2022-12-23T16:11:18.418Z,31.65
2022-12-23T16:14:00.311Z,32.65
2022-12-23T16:16:45.991Z,31.45
2022-12-23T16:19:43.203Z,31.77
2022-12-23T16:22:30.399Z,32.03
2022-12-23T16:25:05.376Z,34.28
2022-12-23T16:27:46.486Z,31.98
2022-12-23T16:30:26.203Z,34.05
2022-12-23T16:33:00.228Z,32.90
2022-12-23T16:35:40.292Z,31.15
2022-12-23T16:38:21.100Z,32.70
2022-12-23T16:40:53.438Z,31.67
2022-12-23T16:43:24.592Z,32.03
2022-12-23T16:45:59.269Z,32.90
2022-12-23T16:48:53.010Z,32.28
2022-12-23T16:51:25.570Z,32.45
2022-12-23T16:53:58.658Z,33.63
2022-12-23T16:56:37.797Z,31.17
2022-12-23T16:59:07.729Z,30.80
2022-12-23T17:01:50.278Z,31.55
2022-12-23T17:04:19.935Z,32.03
2022-12-23T17:06:50.071Z,31.98
2022-12-23T17:09:19.724Z,32.40
2022-12-23T17:11:51.710Z,31.83
2022-12-23T17:14:26.299Z,32.00
2022-12-23T17:16:56.249Z,31.17
2022-12-23T17:19:29.215Z,31.35
2022-12-23T17:22:04.059Z,31.77
2022-12-23T17:24:33.955Z,31.55
2022-12-23T17:27:03.697Z,31.35
2022-12-23T17:29:33.286Z,29.75
2022-12-23T17:32:02.945Z,30.30
2022-12-23T17:34:32.591Z,30.08
2022-12-23T17:37:03.545Z,29.23
2022-12-23T17:39:33.151Z,30.58
2022-12-23T17:42:02.979Z,29.95
2022-12-23T17:44:33.761Z,30.45
2022-12-23T17:47:03.561Z,29.38
2022-12-23T17:49:33.193Z,30.25
2022-12-23T17:52:03.069Z,29.50
2022-12-23T17:54:32.698Z,30.75
2022-12-23T17:57:02.703Z,29.35
2022-12-23T17:59:32.331Z,29.27
2022-12-23T18:02:02.247Z,29.40
2022-12-23T18:04:32.139Z,28.70
2022-12-23T18:07:01.831Z,31.33
2022-12-23T18:09:31.346Z,28.75
2022-12-23T18:12:01.030Z,29.88
2022-12-23T18:14:30.859Z,27.92
2022-12-23T18:17:01.470Z,29.17
2022-12-23T18:19:33.371Z,31.48
2022-12-23T18:22:03.652Z,29.65
2022-12-23T18:24:33.171Z,30.15
2022-12-23T18:27:03.458Z,30.95
2022-12-23T18:29:33.006Z,28.88
2022-12-23T18:32:03.520Z,28.15
2022-12-23T18:34:33.057Z,29.25
2022-12-23T18:37:02.629Z,29.85
2022-12-23T18:39:32.177Z,28.80
2022-12-23T18:42:01.765Z,29.38
2022-12-23T18:44:31.316Z,29.17
2022-12-23T18:47:00.895Z,29.88
2022-12-23T18:49:30.572Z,28.73
2022-12-23T18:52:00.152Z,27.70
2022-12-23T18:54:29.725Z,27.92
2022-12-23T18:57:01.638Z,27.63
2022-12-23T18:59:34.459Z,29.00
2022-12-23T19:02:04.593Z,28.77
2022-12-23T19:04:34.237Z,26.90
2022-12-23T19:07:04.229Z,27.92
2022-12-23T19:09:34.813Z,28.33
2022-12-23T19:12:05.308Z,28.67
2022-12-23T19:14:34.816Z,28.17
2022-12-23T19:17:04.465Z,28.75
2022-12-23T19:19:33.988Z,28.05
2022-12-23T19:22:03.564Z,27.23
2022-12-23T19:24:33.125Z,29.00
2022-12-23T19:27:02.626Z,27.58
2022-12-23T19:29:32.245Z,27.15
2022-12-23T19:32:02.144Z,29.10
2022-12-23T19:34:32.365Z,28.35
2022-12-23T19:37:02.010Z,29.08
2022-12-23T19:39:31.719Z,28.80
2022-12-23T19:42:01.293Z,27.92
2022-12-23T19:44:30.998Z,28.17
2022-12-23T19:47:01.116Z,30.45
2022-12-23T19:49:30.723Z,27.63
2022-12-23T19:52:00.295Z,28.70
2022-12-23T19:54:30.187Z,28.45
2022-12-23T19:56:59.849Z,28.80
2022-12-23T19:59:29.506Z,28.52
2022-12-23T20:01:59.694Z,29.40
2022-12-23T20:04:29.807Z,27.75
2022-12-23T20:06:59.333Z,26.63
2022-12-23T20:09:28.947Z,28.65
2022-12-23T20:11:58.526Z,28.30
2022-12-23T20:14:32.245Z,27.25
2022-12-23T20:17:04.918Z,27.65
2022-12-23T20:19:36.931Z,27.95
2022-12-23T20:22:08.821Z,27.00
2022-12-23T20:24:38.431Z,29.40
2022-12-23T20:27:11.365Z,27.30
2022-12-23T20:29:42.177Z,29.90
2022-12-23T20:32:12.109Z,28.77
2022-12-23T20:34:41.660Z,30.70
2022-12-23T20:37:11.609Z,28.73
2022-12-23T20:39:41.202Z,27.80
2022-12-23T20:42:11.538Z,28.60
2022-12-23T20:44:41.246Z,28.92
2022-12-23T20:47:11.454Z,27.95
2022-12-23T20:49:41.009Z,27.60
2022-12-23T20:52:10.659Z,28.83
2022-12-23T20:54:40.269Z,28.77
2022-12-23T20:57:09.852Z,27.83
2022-12-23T20:59:39.430Z,27.42
2022-12-23T21:02:09.328Z,28.40
2022-12-23T21:04:39.460Z,27.92
2022-12-23T21:07:09.284Z,27.67
2022-12-23T21:09:38.885Z,28.17
2022-12-23T21:12:08.683Z,29.20
2022-12-23T21:14:38.377Z,26.63
2022-12-23T21:17:07.952Z,28.42
2022-12-23T21:19:37.686Z,27.48
2022-12-23T21:22:08.090Z,28.17
2022-12-23T21:24:37.693Z,27.25
2022-12-23T21:27:07.325Z,27.52
2022-12-23T21:29:36.957Z,27.48
2022-12-23T21:32:06.750Z,27.75
2022-12-23T21:34:36.408Z,26.45
2022-12-23T21:37:06.107Z,27.88
2022-12-23T21:39:35.771Z,28.25
2022-12-23T21:42:05.363Z,28.50
2022-12-23T21:44:35.023Z,28.38
2022-12-23T21:47:04.704Z,26.60
2022-12-23T21:49:34.439Z,26.48
2022-12-23T21:52:04.043Z,27.50
2022-12-23T21:54:33.661Z,28.27
2022-12-23T21:57:03.262Z,27.83
2022-12-23T21:59:35.109Z,25.50
2022-12-23T22:02:05.495Z,28.35
2022-12-23T22:04:35.437Z,26.20
2022-12-23T22:07:05.502Z,27.55
2022-12-23T22:09:35.210Z,26.50
2022-12-23T22:12:06.829Z,27.95
2022-12-23T22:14:36.496Z,25.90
2022-12-23T22:17:06.113Z,25.98
2022-12-23T22:19:35.787Z,26.15
2022-12-23T22:22:05.460Z,25.73
2022-12-23T22:24:35.041Z,26.92
2022-12-23T22:27:05.831Z,26.38
2022-12-23T22:29:35.453Z,27.35
2022-12-23T22:32:05.148Z,25.05
2022-12-23T22:34:34.851Z,26.38
2022-12-23T22:37:04.402Z,27.17
2022-12-23T22:39:33.934Z,25.23
2022-12-23T22:42:03.596Z,26.13
2022-12-23T22:44:33.167Z,25.40
2022-12-23T22:47:02.763Z,25.60
2022-12-23T22:49:32.506Z,24.92
2022-12-23T22:52:02.140Z,26.50
2022-12-23T22:54:31.943Z,27.65
2022-12-23T22:57:01.576Z,25.65
2022-12-23T22:59:31.208Z,24.50
2022-12-23T23:02:00.826Z,28.83
2022-12-23T23:04:30.552Z,27.20
2022-12-23T23:07:00.762Z,26.38
2022-12-23T23:09:30.940Z,26.67
2022-12-23T23:12:00.544Z,27.13
2022-12-23T23:14:30.163Z,27.15
2022-12-23T23:16:59.847Z,27.63
2022-12-23T23:19:29.628Z,27.95
2022-12-23T23:21:59.157Z,26.90
2022-12-23T23:24:31.410Z,25.83
2022-12-23T23:27:01.251Z,28.63
2022-12-23T23:29:30.897Z,26.40
2022-12-23T23:32:00.786Z,25.00
2022-12-23T23:34:30.559Z,27.05
2022-12-23T23:37:00.464Z,25.67
2022-12-23T23:39:30.139Z,26.95
2022-12-23T23:42:00.610Z,27.60
2022-12-23T23:44:30.239Z,24.83
2022-12-23T23:46:59.840Z,26.35
2022-12-23T23:49:29.454Z,27.58
2022-12-23T23:51:59.100Z,26.98
2022-12-23T23:54:28.733Z,27.23
2022-12-23T23:56:58.343Z,27.95
2022-12-23T23:59:27.910Z,31.20
